Time;durP1;ratioP1;P1;durP2;ratioP2;P2;SDS_P1;SDS_P2;PMS_P1;PMS_P2;Temp;Humidity;BMP_temperature;BMP_pressure;BME280_temperature;BME280_humidity;BME280_pressure;Samples;Min_cycle;Max_cycle;Signal;HPM_P1;HPM_P2
2023/09/19 00:01:11;;;;;;;0.40;0.40;;;21.80;68.30;;;;;;6303635;22;20169;-84
2023/09/19 00:03:42;;;;;;;0.40;0.40;;;21.80;68.30;;;;;;6300227;22;20176;-83
2023/09/19 00:06:13;;;;;;;0.20;0.20;;;21.80;68.30;;;;;;6301801;22;20165;-85
2023/09/19 00:08:43;;;;;;;0.52;0.32;;;21.70;68.30;;;;;;6303468;22;20713;-84
2023/09/19 00:11:12;;;;;;;0.40;0.40;;;21.70;68.80;;;;;;6304535;22;20184;-84
2023/09/19 00:13:43;;;;;;;0.73;0.60;;;21.70;68.80;;;;;;6304495;22;20172;-86
2023/09/19 00:16:12;;;;;;;0.30;0.30;;;21.70;68.80;;;;;;6304046;22;20169;-85
2023/09/19 00:18:41;;;;;;;0.40;0.40;;;21.60;68.90;;;;;;6302729;22;20168;-84
2023/09/19 00:21:10;;;;;;;1.55;1.20;;;21.60;69.50;;;;;;6304737;22;20167;-84
2023/09/19 00:23:40;;;;;;;0.85;0.47;;;21.60;69.60;;;;;;6306269;22;20165;-83
2023/09/19 00:26:09;;;;;;;0.40;0.40;;;21.50;69.40;;;;;;6305176;22;20165;-83
2023/09/19 00:28:37;;;;;;;0.30;0.30;;;21.50;69.40;;;;;;6302485;22;20583;-83
2023/09/19 00:31:09;;;;;;;0.38;0.38;;;21.50;69.40;;;;;;6303426;22;20161;-85
2023/09/19 00:33:38;;;;;;;0.40;0.40;;;21.50;69.40;;;;;;6278691;22;20292;-84
2023/09/19 00:36:07;;;;;;;0.32;0.32;;;21.40;69.30;;;;;;6306470;22;20176;-86
2023/09/19 00:38:36;;;;;;;0.20;0.20;;;21.40;69.20;;;;;;6305318;22;20162;-83
2023/09/19 00:41:05;;;;;;;0.35;0.35;;;21.40;69.40;;;;;;6304457;22;20192;-86
2023/09/19 00:43:34;;;;;;;1.27;0.80;;;21.40;69.40;;;;;;6305073;22;20553;-85
2023/09/19 00:46:06;;;;;;;1.60;0.60;;;21.30;69.50;;;;;;6304970;22;20173;-86
2023/09/19 00:48:43;;;;;;;0.45;0.30;;;21.30;70.00;;;;;;6304224;22;20237;-84
2023/09/19 00:51:16;;;;;;;1.77;1.10;;;21.30;70.10;;;;;;6307213;22;20481;-85
2023/09/19 00:53:46;;;;;;;0.30;0.30;;;21.20;70.50;;;;;;6306244;22;20181;-83
2023/09/19 00:56:18;;;;;;;2.60;0.85;;;21.20;70.40;;;;;;6303062;22;20165;-85
2023/09/19 00:58:47;;;;;;;0.77;0.73;;;21.10;70.50;;;;;;6304759;22;20219;-83
2023/09/19 01:01:16;;;;;;;0.40;0.40;;;21.10;70.80;;;;;;6304767;22;20716;-83
2023/09/19 01:03:47;;;;;;;0.47;0.47;;;21.00;71.00;;;;;;6303855;22;20231;-83
2023/09/19 01:06:17;;;;;;;0.97;0.63;;;21.00;70.90;;;;;;6303468;22;20533;-82
2023/09/19 01:08:46;;;;;;;0.57;0.57;;;21.00;70.90;;;;;;6305895;22;20165;-83
2023/09/19 01:11:21;;;;;;;1.30;0.70;;;20.90;71.00;;;;;;6306141;22;20650;-85
2023/09/19 01:13:58;;;;;;;0.30;0.30;;;20.90;71.10;;;;;;6302805;22;20199;-84
2023/09/19 01:16:50;;;;;;;0.63;0.63;;;20.80;71.30;;;;;;6303824;22;20491;-84
2023/09/19 01:19:57;;;;;;;0.50;0.50;;;20.80;71.10;;;;;;6305153;22;20634;-84
2023/09/19 01:22:37;;;;;;;0.43;0.40;;;20.80;71.50;;;;;;6306678;22;20157;-83
2023/09/19 01:25:42;;;;;;;1.80;0.63;;;20.70;71.50;;;;;;6304138;22;20542;-83
2023/09/19 01:28:30;;;;;;;1.15;0.90;;;20.70;71.60;;;;;;6275167;22;20238;-85
2023/09/19 01:31:04;;;;;;;0.57;0.57;;;20.70;71.50;;;;;;6303939;22;20158;-83
2023/09/19 01:34:00;;;;;;;2.47;1.50;;;20.70;71.50;;;;;;6306148;22;20181;-84
2023/09/19 01:36:30;;;;;;;0.30;0.30;;;20.60;71.40;;;;;;6304151;22;20172;-85
2023/09/19 01:39:00;;;;;;;1.37;0.60;;;20.60;71.60;;;;;;6303198;22;20256;-86
2023/09/19 01:41:46;;;;;;;0.40;0.40;;;20.60;72.00;;;;;;6306374;22;20165;-84
2023/09/19 01:44:23;;;;;;;0.30;0.30;;;20.50;71.90;;;;;;6303982;22;20244;-85
2023/09/19 01:46:57;;;;;;;0.57;0.50;;;20.50;72.10;;;;;;6304935;22;20606;-86
2023/09/19 01:49:34;;;;;;;0.40;0.40;;;20.50;72.00;;;;;;6302924;22;20924;-86
2023/09/19 01:52:13;;;;;;;0.37;0.37;;;20.40;72.10;;;;;;6304957;22;20156;-86
2023/09/19 01:54:47;;;;;;;0.30;0.30;;;20.40;72.20;;;;;;6303616;22;20165;-86
2023/09/19 01:57:23;;;;;;;0.83;0.60;;;20.40;72.10;;;;;;6304570;22;20156;-85
2023/09/19 02:00:06;;;;;;;0.43;0.43;;;20.40;72.10;;;;;;6302446;22;20189;-85
2023/09/19 02:02:37;;;;;;;2.27;1.13;;;20.40;73.00;;;;;;6306322;22;20157;-86
2023/09/19 02:05:07;;;;;;;0.87;0.70;;;20.40;72.20;;;;;;6303013;22;20162;-86
2023/09/19 02:07:37;;;;;;;1.07;0.70;;;20.30;72.20;;;;;;6303582;22;20497;-84
2023/09/19 02:10:10;;;;;;;0.67;0.67;;;20.30;72.20;;;;;;6301227;22;20181;-84
2023/09/19 02:12:38;;;;;;;0.67;0.67;;;20.30;72.10;;;;;;6303858;22;20236;-83
2023/09/19 02:15:08;;;;;;;0.50;0.50;;;20.20;72.10;;;;;;6302766;22;20172;-85
2023/09/19 02:17:38;;;;;;;1.63;0.93;;;20.20;72.10;;;;;;6303491;22;20184;-86
2023/09/19 02:20:14;;;;;;;0.80;0.73;;;20.20;72.10;;;;;;6303449;22;20595;-85
2023/09/19 02:22:44;;;;;;;1.03;0.97;;;20.20;72.20;;;;;;6302628;22;20169;-85
2023/09/19 02:25:15;;;;;;;0.70;0.70;;;20.20;72.20;;;;;;6304018;22;20153;-85
2023/09/19 02:27:43;;;;;;;0.83;0.83;;;20.10;72.40;;;;;;6301778;22;20219;-84
2023/09/19 02:30:15;;;;;;;0.80;0.73;;;20.10;72.50;;;;;;6294209;22;20165;-84
2023/09/19 02:32:46;;;;;;;0.50;0.50;;;20.00;72.80;;;;;;6304888;22;20180;-85
2023/09/19 02:35:14;;;;;;;0.37;0.37;;;20.00;72.80;;;;;;6304145;22;20497;-85
2023/09/19 02:37:44;;;;;;;0.50;0.50;;;20.00;72.70;;;;;;6303446;22;20252;-87
2023/09/19 02:40:19;;;;;;;0.60;0.60;;;19.90;72.70;;;;;;6304628;22;20244;-86
2023/09/19 02:42:58;;;;;;;2.37;1.20;;;19.90;72.60;;;;;;6304370;22;20164;-85
2023/09/19 02:45:27;;;;;;;1.40;0.70;;;19.90;72.70;;;;;;6304114;22;20149;-86
2023/09/19 02:47:56;;;;;;;4.43;1.27;;;19.90;72.60;;;;;;6302878;22;20243;-85
2023/09/19 02:50:25;;;;;;;0.63;0.47;;;19.80;72.50;;;;;;6303856;22;20165;-86
2023/09/19 02:52:54;;;;;;;0.47;0.40;;;19.80;72.50;;;;;;6305267;22;20494;-86
2023/09/19 02:55:25;;;;;;;0.40;0.40;;;19.80;72.40;;;;;;6303950;22;20642;-86
2023/09/19 02:57:55;;;;;;;0.63;0.63;;;19.80;72.50;;;;;;6303461;22;20607;-84
2023/09/19 03:00:24;;;;;;;0.40;0.30;;;19.80;72.50;;;;;;6302531;22;20161;-85
2023/09/19 03:02:56;;;;;;;0.60;0.60;;;19.80;72.50;;;;;;6302843;22;20615;-84
2023/09/19 03:05:30;;;;;;;0.80;0.80;;;19.80;72.70;;;;;;6302832;22;20153;-87
2023/09/19 03:08:00;;;;;;;0.70;0.70;;;19.80;72.70;;;;;;6301649;22;20687;-84
2023/09/19 03:10:30;;;;;;;0.50;0.50;;;19.70;72.50;;;;;;6303739;22;20192;-85
2023/09/19 03:13:00;;;;;;;1.10;0.80;;;19.70;72.60;;;;;;6302351;22;20176;-86
2023/09/19 03:15:29;;;;;;;0.60;0.60;;;19.70;72.70;;;;;;6305168;22;20176;-86
2023/09/19 03:17:59;;;;;;;0.97;0.87;;;19.70;72.80;;;;;;6301792;22;20169;-85
2023/09/19 03:20:28;;;;;;;0.80;0.80;;;19.70;73.00;;;;;;6302829;22;20423;-85
2023/09/19 03:22:57;;;;;;;0.73;0.73;;;19.60;73.00;;;;;;6304599;22;20244;-85
2023/09/19 03:25:25;;;;;;;0.93;0.90;;;19.60;73.10;;;;;;6303568;22;20727;-86
2023/09/19 03:27:54;;;;;;;0.40;0.40;;;19.60;73.40;;;;;;6303537;22;20609;-86
2023/09/19 03:30:22;;;;;;;1.20;0.83;;;19.60;73.40;;;;;;6301701;22;20169;-85
2023/09/19 03:32:51;;;;;;;0.37;0.37;;;19.50;73.30;;;;;;6302553;22;20549;-83
2023/09/19 03:35:21;;;;;;;0.53;0.40;;;19.50;73.30;;;;;;6301886;22;20189;-83
2023/09/19 03:37:49;;;;;;;0.30;0.30;;;19.50;73.30;;;;;;6302964;22;20224;-85
2023/09/19 03:40:20;;;;;;;1.03;0.60;;;19.50;73.30;;;;;;6303836;22;20161;-84
2023/09/19 03:42:49;;;;;;;0.63;0.53;;;19.50;73.60;;;;;;6304544;22;20154;-84
2023/09/19 03:45:18;;;;;;;0.77;0.60;;;19.50;73.30;;;;;;6303194;22;20169;-85
2023/09/19 03:47:48;;;;;;;0.60;0.60;;;19.40;73.30;;;;;;6302699;22;20169;-85
2023/09/19 03:50:17;;;;;;;1.73;0.60;;;19.40;73.30;;;;;;6302745;22;20165;-84
2023/09/19 03:52:47;;;;;;;0.27;0.27;;;19.40;73.40;;;;;;6305518;22;20165;-83
2023/09/19 03:55:16;;;;;;;0.93;0.83;;;19.40;73.50;;;;;;6303747;22;20548;-85
2023/09/19 03:57:50;;;;;;;1.33;1.23;;;19.40;73.50;;;;;;6302493;22;20203;-86
2023/09/19 04:03:56;;;;;;;0.40;0.40;;;19.30;73.60;;;;;;6281078;22;20216;-83
2023/09/19 04:06:27;;;;;;;0.53;0.40;;;19.30;73.80;;;;;;6304928;22;20248;-85
2023/09/19 04:08:57;;;;;;;0.80;0.70;;;19.20;73.80;;;;;;6304243;22;20218;-83
2023/09/19 04:11:26;;;;;;;0.50;0.50;;;19.20;73.80;;;;;;6302444;22;20709;-85
2023/09/19 04:13:55;;;;;;;1.03;0.47;;;19.20;73.80;;;;;;6303485;22;20193;-83
2023/09/19 04:16:23;;;;;;;0.23;0.23;;;19.20;74.10;;;;;;6303136;22;20192;-83
2023/09/19 04:18:52;;;;;;;0.30;0.30;;;19.20;74.10;;;;;;6297146;22;20173;-83
2023/09/19 04:21:21;;;;;;;0.87;0.87;;;19.20;74.30;;;;;;6301051;22;20252;-84
2023/09/19 04:23:49;;;;;;;2.00;0.97;;;19.20;74.70;;;;;;6274025;22;20196;-84
2023/09/19 04:26:20;;;;;;;0.63;0.50;;;19.20;74.90;;;;;;6300287;22;20176;-87
2023/09/19 04:28:51;;;;;;;0.50;0.50;;;19.10;74.90;;;;;;6300220;22;20168;-87
2023/09/19 04:31:20;;;;;;;0.40;0.40;;;19.10;75.00;;;;;;6301487;22;20229;-85
2023/09/19 04:33:49;;;;;;;1.30;0.83;;;19.10;74.90;;;;;;6301729;22;20571;-84
2023/09/19 04:36:18;;;;;;;0.60;0.40;;;19.10;74.80;;;;;;6304443;22;20173;-84
2023/09/19 04:39:04;;;;;;;0.90;0.90;;;19.10;74.80;;;;;;6300504;22;20165;-84
2023/09/19 04:41:36;;;;;;;0.73;0.40;;;19.20;74.90;;;;;;6302346;22;20644;-83
2023/09/19 04:44:06;;;;;;;0.30;0.30;;;19.20;74.80;;;;;;6304004;22;20556;-85
2023/09/19 04:46:34;;;;;;;0.30;0.30;;;19.20;74.80;;;;;;6303268;22;20176;-85
2023/09/19 04:49:06;;;;;;;1.53;0.77;;;19.30;74.90;;;;;;6305062;22;20169;-87
2023/09/19 04:51:36;;;;;;;0.40;0.40;;;19.30;75.00;;;;;;6307784;22;20194;-83
2023/09/19 04:54:06;;;;;;;0.53;0.53;;;19.40;75.00;;;;;;6303187;22;20717;-84
2023/09/19 04:56:40;;;;;;;0.37;0.37;;;19.40;75.10;;;;;;6302708;22;20498;-83
2023/09/19 04:59:10;;;;;;;0.40;0.40;;;19.50;75.10;;;;;;6303931;22;20165;-83
2023/09/19 05:01:39;;;;;;;1.50;1.00;;;19.50;75.20;;;;;;6303533;22;20228;-83
2023/09/19 05:04:08;;;;;;;5.50;1.00;;;19.60;75.40;;;;;;6300530;22;20204;-84
2023/09/19 05:06:36;;;;;;;0.50;0.50;;;19.60;75.70;;;;;;6302313;22;20833;-86
2023/09/19 05:09:11;;;;;;;0.87;0.87;;;19.80;75.80;;;;;;6304278;22;20617;-85
2023/09/19 05:11:41;;;;;;;0.80;0.80;;;19.80;75.90;;;;;;6303765;22;20165;-84
2023/09/19 05:14:11;;;;;;;0.47;0.43;;;19.90;75.90;;;;;;6306119;22;20948;-83
2023/09/19 05:16:40;;;;;;;0.57;0.57;;;19.90;76.30;;;;;;6305593;22;20243;-84
2023/09/19 05:19:11;;;;;;;0.70;0.70;;;20.00;76.90;;;;;;6305744;22;20177;-84
2023/09/19 05:21:42;;;;;;;0.53;0.50;;;20.10;76.90;;;;;;6306998;22;20153;-84
2023/09/19 05:24:11;;;;;;;1.10;0.80;;;20.10;76.90;;;;;;6305113;22;20247;-84
2023/09/19 05:26:41;;;;;;;3.33;0.93;;;20.20;76.80;;;;;;6306886;22;20169;-85
2023/09/19 05:29:09;;;;;;;1.25;1.13;;;20.30;76.80;;;;;;6305862;22;20930;-85
2023/09/19 05:31:40;;;;;;;1.42;1.02;;;20.40;76.90;;;;;;6304386;22;20218;-84
2023/09/19 05:34:09;;;;;;;0.90;0.85;;;20.40;76.80;;;;;;6306956;22;20210;-83
2023/09/19 05:36:39;;;;;;;0.40;0.40;;;20.50;76.90;;;;;;6301903;22;20480;-85
2023/09/19 05:39:09;;;;;;;0.52;0.43;;;20.60;77.00;;;;;;6301238;22;20915;-82
2023/09/19 05:41:39;;;;;;;1.15;0.90;;;20.70;77.20;;;;;;6303710;22;20236;-83
2023/09/19 05:44:11;;;;;;;1.15;0.82;;;20.80;78.00;;;;;;6306016;22;20215;-84
2023/09/19 05:46:39;;;;;;;0.63;0.63;;;20.80;77.10;;;;;;6304509;22;20157;-83
2023/09/19 05:49:08;;;;;;;0.50;0.50;;;20.90;77.30;;;;;;6301297;22;20788;-86
2023/09/19 05:51:36;;;;;;;0.77;0.68;;;21.00;77.30;;;;;;6304895;22;20598;-83
2023/09/19 05:54:05;;;;;;;1.35;0.85;;;21.00;77.20;;;;;;6304484;22;20632;-85
2023/09/19 05:56:34;;;;;;;0.60;0.60;;;21.10;77.00;;;;;;6305513;22;20193;-83
2023/09/19 05:59:03;;;;;;;1.30;0.82;;;21.20;77.30;;;;;;6306068;22;20228;-84
2023/09/19 06:01:34;;;;;;;0.47;0.47;;;21.20;77.80;;;;;;6303587;22;20177;-83
2023/09/19 06:04:04;;;;;;;0.32;0.32;;;21.30;76.90;;;;;;6304236;22;20193;-84
2023/09/19 06:06:33;;;;;;;2.35;1.27;;;21.40;76.90;;;;;;6306387;22;20161;-82
2023/09/19 06:09:02;;;;;;;0.40;0.40;;;21.50;76.80;;;;;;6305356;22;20157;-85
2023/09/19 06:11:32;;;;;;;1.50;1.13;;;21.60;76.90;;;;;;6306404;22;20165;-85
2023/09/19 06:14:02;;;;;;;1.30;0.50;;;21.70;76.60;;;;;;6304658;22;20161;-83
2023/09/19 06:16:33;;;;;;;1.33;1.23;;;21.80;76.50;;;;;;6305874;22;20665;-84
2023/09/19 06:19:02;;;;;;;0.63;0.50;;;21.80;76.30;;;;;;6305745;22;20161;-85
2023/09/19 06:21:32;;;;;;;1.65;1.05;;;21.90;76.20;;;;;;6306564;22;20544;-84
2023/09/19 06:24:00;;;;;;;0.55;0.50;;;22.00;76.10;;;;;;6303573;22;20171;-85
2023/09/19 06:26:29;;;;;;;0.30;0.30;;;22.10;75.90;;;;;;6307474;22;20169;-84
2023/09/19 06:28:59;;;;;;;0.38;0.38;;;22.10;75.80;;;;;;6306410;22;20172;-84
2023/09/19 06:31:28;;;;;;;0.65;0.65;;;22.20;75.60;;;;;;6306839;22;20159;-84
2023/09/19 06:33:58;;;;;;;3.20;0.95;;;22.30;75.50;;;;;;6307288;22;20201;-84
2023/09/19 06:36:27;;;;;;;1.27;0.88;;;22.30;75.30;;;;;;6327152;22;20240;-84
2023/09/19 06:38:55;;;;;;;0.35;0.30;;;22.40;75.10;;;;;;6326165;22;20505;-83
2023/09/19 06:41:24;;;;;;;0.40;0.40;;;22.50;75.10;;;;;;6327967;22;20169;-84
2023/09/19 06:43:54;;;;;;;0.65;0.60;;;22.50;74.90;;;;;;6327221;22;20188;-83
2023/09/19 06:46:23;;;;;;;0.80;0.70;;;22.60;74.80;;;;;;6327450;22;20173;-85
2023/09/19 06:48:53;;;;;;;1.10;0.85;;;22.60;74.60;;;;;;6318182;22;20170;-84
2023/09/19 06:51:23;;;;;;;0.45;0.45;;;22.70;74.50;;;;;;6319595;22;20223;-84
2023/09/19 06:53:54;;;;;;;0.80;0.63;;;22.80;74.10;;;;;;6316630;22;20169;-84
2023/09/19 06:56:24;;;;;;;2.22;1.25;;;22.80;73.90;;;;;;6313940;22;20554;-85
2023/09/19 06:58:53;;;;;;;0.50;0.50;;;22.90;73.90;;;;;;6307587;22;20158;-84
2023/09/19 07:01:21;;;;;;;0.73;0.35;;;23.00;73.70;;;;;;6305701;22;20169;-83
2023/09/19 07:03:50;;;;;;;0.30;0.30;;;23.10;73.60;;;;;;6305051;22;20231;-83
2023/09/19 07:06:19;;;;;;;1.75;1.20;;;23.10;73.00;;;;;;6302697;22;20544;-85
2023/09/19 07:08:50;;;;;;;1.65;0.80;;;23.20;73.00;;;;;;6301981;22;20248;-85
2023/09/19 07:11:19;;;;;;;0.43;0.43;;;23.20;72.30;;;;;;6305224;22;20153;-86
2023/09/19 07:13:48;;;;;;;0.65;0.40;;;23.30;71.90;;;;;;6302948;22;20165;-83
2023/09/19 07:16:27;;;;;;;0.47;0.47;;;23.30;71.10;;;;;;6304188;22;20207;-84
2023/09/19 07:18:56;;;;;;;0.90;0.60;;;23.30;70.60;;;;;;6302741;22;20481;-84
2023/09/19 07:21:25;;;;;;;0.28;0.28;;;23.40;70.50;;;;;;6304771;22;20169;-85
2023/09/19 07:23:55;;;;;;;0.60;0.60;;;23.40;70.50;;;;;;6303406;22;20168;-83
2023/09/19 07:26:24;;;;;;;1.02;0.70;;;23.40;70.70;;;;;;6305371;22;20167;-84
2023/09/19 07:28:53;;;;;;;0.40;0.40;;;23.50;70.80;;;;;;6304758;22;20546;-84
2023/09/19 07:31:22;;;;;;;0.60;0.60;;;23.50;70.70;;;;;;6299796;22;20169;-85
2023/09/19 07:33:51;;;;;;;0.55;0.40;;;23.50;70.30;;;;;;6305305;22;20533;-86
2023/09/19 07:36:20;;;;;;;1.08;0.68;;;23.70;70.50;;;;;;6305766;22;20188;-86
2023/09/19 07:38:48;;;;;;;0.52;0.50;;;23.70;70.50;;;;;;6304863;22;20169;-85
2023/09/19 07:41:18;;;;;;;0.93;0.40;;;23.70;70.20;;;;;;6304791;22;20175;-86
2023/09/19 07:43:46;;;;;;;0.57;0.57;;;23.80;70.20;;;;;;6304219;22;20562;-85
2023/09/19 07:46:15;;;;;;;0.77;0.65;;;23.90;70.10;;;;;;6305302;22;20207;-86
2023/09/19 07:48:48;;;;;;;3.47;0.95;;;23.90;70.10;;;;;;6303709;22;20271;-86
2023/09/19 07:51:17;;;;;;;0.77;0.77;;;24.00;70.00;;;;;;6305519;22;20483;-85
2023/09/19 07:53:46;;;;;;;0.32;0.32;;;24.00;70.00;;;;;;6302961;22;20240;-84
2023/09/19 07:56:14;;;;;;;0.80;0.68;;;24.00;69.90;;;;;;6301735;22;20643;-86
2023/09/19 07:58:45;;;;;;;0.50;0.50;;;24.00;69.70;;;;;;6304599;22;20236;-85
2023/09/19 08:03:47;;;;;;;2.28;0.77;;;24.10;69.20;;;;;;6301875;22;20275;-88
2023/09/19 08:06:19;;;;;;;1.00;0.75;;;24.10;69.30;;;;;;6305860;22;20594;-87
2023/09/19 08:08:49;;;;;;;0.55;0.40;;;24.10;69.40;;;;;;6305548;22;20245;-86
2023/09/19 08:11:21;;;;;;;1.45;1.17;;;24.20;69.30;;;;;;6304662;22;20503;-87
2023/09/19 08:13:52;;;;;;;0.57;0.40;;;24.30;68.60;;;;;;6305660;22;20158;-90
2023/09/19 08:16:22;;;;;;;0.40;0.40;;;24.30;68.70;;;;;;6304521;22;20186;-86
2023/09/19 08:18:55;;;;;;;0.68;0.60;;;24.40;68.30;;;;;;6307556;22;20169;-84
2023/09/19 08:21:23;;;;;;;0.22;0.22;;;24.50;68.30;;;;;;6306693;22;20153;-87
2023/09/19 08:23:54;;;;;;;1.38;0.90;;;24.50;67.90;;;;;;6306668;22;20504;-84
2023/09/19 08:26:24;;;;;;;1.02;0.50;;;24.60;68.20;;;;;;6255216;22;20646;-87
2023/09/19 08:28:55;;;;;;;0.40;0.40;;;24.60;67.70;;;;;;6304811;22;20236;-85
2023/09/19 08:31:25;;;;;;;0.60;0.60;;;24.70;67.00;;;;;;6307392;22;20261;-85
2023/09/19 08:33:55;;;;;;;0.45;0.45;;;24.80;66.70;;;;;;6306180;22;20492;-85
2023/09/19 08:36:24;;;;;;;0.30;0.30;;;24.80;66.50;;;;;;6281168;22;20487;-86
2023/09/19 08:38:53;;;;;;;1.02;0.40;;;24.90;66.70;;;;;;6279731;22;20165;-85
2023/09/19 08:41:21;;;;;;;0.20;0.20;;;25.00;66.10;;;;;;6307349;22;20251;-87
2023/09/19 08:43:51;;;;;;;0.80;0.43;;;25.10;66.00;;;;;;6278121;22;20165;-86
2023/09/19 08:46:26;;;;;;;0.38;0.38;;;25.20;66.00;;;;;;6306650;22;20705;-87
2023/09/19 08:49:04;;;;;;;0.68;0.45;;;25.20;65.70;;;;;;6307594;22;20169;-87
2023/09/19 08:51:44;;;;;;;0.47;0.47;;;25.30;65.70;;;;;;6280277;22;20153;-86
2023/09/19 08:54:22;;;;;;;0.25;0.25;;;25.40;65.10;;;;;;6308880;22;20160;-88
2023/09/19 08:56:53;;;;;;;0.52;0.40;;;25.50;65.00;;;;;;6308353;22;20280;-87
2023/09/19 08:59:26;;;;;;;0.40;0.40;;;25.60;65.00;;;;;;6305461;22;20222;-84
2023/09/19 09:01:57;;;;;;;0.38;0.38;;;25.70;64.70;;;;;;6305286;22;20193;-87
2023/09/19 09:04:27;;;;;;;0.85;0.75;;;25.80;63.80;;;;;;6305012;22;20161;-90
2023/09/19 09:06:57;;;;;;;0.68;0.68;;;25.80;63.90;;;;;;6278469;22;20290;-87
2023/09/19 09:09:26;;;;;;;1.13;0.80;;;25.90;63.80;;;;;;6307802;22;20161;-88
2023/09/19 09:11:56;;;;;;;0.68;0.65;;;25.90;63.00;;;;;;6305765;22;20539;-85
2023/09/19 09:14:25;;;;;;;1.00;0.80;;;26.00;62.10;;;;;;6304920;22;20608;-86
2023/09/19 09:16:59;;;;;;;1.38;0.77;;;26.00;61.80;;;;;;6304568;22;20188;-91
2023/09/19 09:19:28;;;;;;;0.25;0.25;;;26.00;61.80;;;;;;6306746;22;20150;-85
2023/09/19 09:22:08;;;;;;;1.45;0.57;;;26.00;61.80;;;;;;6308118;22;20490;-87
2023/09/19 09:24:38;;;;;;;1.48;0.47;;;26.00;61.20;;;;;;6300479;22;20216;-87
2023/09/19 09:27:10;;;;;;;1.63;1.20;;;26.00;60.00;;;;;;6304317;22;20165;-88
2023/09/19 09:29:43;;;;;;;0.55;0.45;;;26.00;59.50;;;;;;6305079;22;20158;-88
2023/09/19 09:32:21;;;;;;;0.70;0.70;;;26.00;59.00;;;;;;6306825;22;20311;-86
2023/09/19 09:34:52;;;;;;;0.70;0.28;;;26.00;58.80;;;;;;6278011;22;20161;-86
2023/09/19 09:37:24;;;;;;;1.63;0.50;;;26.00;58.80;;;;;;6305917;22;20184;-88
2023/09/19 09:39:58;;;;;;;0.43;0.43;;;25.90;58.70;;;;;;6303182;22;20154;-87
2023/09/19 09:42:41;;;;;;;0.35;0.30;;;26.00;58.60;;;;;;6280429;22;20579;-88
2023/09/19 09:45:15;;;;;;;1.55;0.68;;;26.00;59.20;;;;;;6305273;22;20161;-88
2023/09/19 09:47:54;;;;;;;0.52;0.32;;;26.10;59.40;;;;;;6305276;22;20168;-88
2023/09/19 09:50:37;;;;;;;0.85;0.85;;;26.10;59.80;;;;;;6303635;22;20157;-87
2023/09/19 09:53:07;;;;;;;0.77;0.32;;;26.20;58.90;;;;;;6306899;22;20211;-86
2023/09/19 09:56:05;;;;;;;0.52;0.52;;;26.30;59.20;;;;;;6304376;22;20248;-87
2023/09/19 09:58:36;;;;;;;0.20;0.20;;;26.30;57.40;;;;;;6302657;22;20185;-85
2023/09/19 10:01:10;;;;;;;0.40;0.40;;;26.40;57.60;;;;;;6305021;22;20149;-87
2023/09/19 10:03:43;;;;;;;0.65;0.60;;;26.40;57.30;;;;;;6278745;22;20197;-87
2023/09/19 10:09:10;;;;;;;1.92;1.45;;;26.50;58.20;;;;;;6253475;22;20223;-89
2023/09/19 10:11:44;;;;;;;1.00;0.60;;;26.60;58.30;;;;;;6307531;22;20234;-92
2023/09/19 10:14:14;;;;;;;1.50;0.98;;;26.70;58.10;;;;;;6306392;22;20546;-92
2023/09/19 10:16:47;;;;;;;0.45;0.45;;;26.70;58.00;;;;;;6306512;22;20533;-91
2023/09/19 10:19:28;;;;;;;0.90;0.60;;;26.80;58.10;;;;;;6307299;22;20153;-92
2023/09/19 10:21:58;;;;;;;0.50;0.50;;;26.80;58.30;;;;;;6307201;22;20970;-90
2023/09/19 10:24:31;;;;;;;1.13;0.68;;;26.90;58.50;;;;;;6308080;22;20171;-89
2023/09/19 10:27:03;;;;;;;0.40;0.40;;;26.90;57.60;;;;;;6305695;22;20189;-90
2023/09/19 10:29:36;;;;;;;0.63;0.55;;;26.90;56.90;;;;;;6307286;22;20162;-91
2023/09/19 10:32:08;;;;;;;0.63;0.43;;;27.00;56.70;;;;;;6279581;22;20236;-92
2023/09/19 10:34:41;;;;;;;0.30;0.30;;;27.10;57.00;;;;;;6304630;22;20195;-84
2023/09/19 10:37:14;;;;;;;0.50;0.50;;;27.10;56.50;;;;;;6275807;22;20212;-86
2023/09/19 10:39:47;;;;;;;2.28;0.75;;;27.10;55.80;;;;;;6276212;22;20164;-85
2023/09/19 10:42:21;;;;;;;1.75;0.60;;;27.20;55.10;;;;;;6303300;22;20210;-87
2023/09/19 10:44:54;;;;;;;0.20;0.20;;;27.20;55.40;;;;;;6302446;22;20637;-86
2023/09/19 10:47:24;;;;;;;0.20;0.20;;;27.20;55.70;;;;;;6305709;22;20157;-86
2023/09/19 10:49:54;;;;;;;0.70;0.40;;;27.30;55.30;;;;;;6276165;22;20157;-86
2023/09/19 10:52:26;;;;;;;0.40;0.40;;;27.30;55.10;;;;;;6304809;22;20153;-86
2023/09/19 10:54:59;;;;;;;0.43;0.30;;;27.30;55.20;;;;;;6277481;22;20479;-85
2023/09/19 10:57:28;;;;;;;1.38;0.35;;;27.40;55.00;;;;;;6305536;22;20187;-87
2023/09/19 11:00:21;;;;;;;0.40;0.40;;;27.50;54.40;;;;;;6302867;22;20165;-84
2023/09/19 11:03:19;;;;;;;1.08;0.60;;;27.50;53.70;;;;;;6280341;22;20727;-87
2023/09/19 11:06:13;;;;;;;1.00;0.47;;;27.50;53.20;;;;;;6306257;22;20457;-85
2023/09/19 11:09:21;;;;;;;0.30;0.20;;;27.50;52.90;;;;;;6304664;22;20587;-83
2023/09/19 11:11:52;;;;;;;0.45;0.40;;;27.50;53.30;;;;;;6299760;22;20173;-84
2023/09/19 11:14:38;;;;;;;1.73;0.85;;;27.60;53.80;;;;;;6302990;22;20185;-84
2023/09/19 11:17:32;;;;;;;0.40;0.35;;;27.70;53.90;;;;;;6301549;22;20192;-83
2023/09/19 11:20:43;;;;;;;0.40;0.40;;;27.70;52.70;;;;;;6300119;22;20184;-84
2023/09/19 11:23:29;;;;;;;0.20;0.20;;;27.70;52.40;;;;;;6304367;22;20189;-86
2023/09/19 11:25:59;;;;;;;0.73;0.30;;;27.80;52.90;;;;;;6302578;22;20184;-85
2023/09/19 11:28:31;;;;;;;0.50;0.35;;;27.80;52.90;;;;;;6277934;22;20694;-82
2023/09/19 11:31:00;;;;;;;0.85;0.47;;;27.80;52.90;;;;;;6305307;22;20165;-86
2023/09/19 11:33:31;;;;;;;0.93;0.30;;;27.90;53.10;;;;;;6305145;22;20246;-85
2023/09/19 11:36:01;;;;;;;0.20;0.20;;;27.90;52.90;;;;;;6304328;22;20565;-86
2023/09/19 11:39:01;;;;;;;0.40;0.40;;;28.00;52.90;;;;;;6304990;22;20189;-86
2023/09/19 11:41:39;;;;;;;1.15;0.57;;;28.10;53.10;;;;;;6305877;22;20150;-85
2023/09/19 11:44:38;;;;;;;1.13;0.47;;;28.20;53.10;;;;;;6304301;22;20503;-84
2023/09/19 11:47:09;;;;;;;0.68;0.43;;;28.20;52.30;;;;;;6304856;22;20263;-87
2023/09/19 11:49:42;;;;;;;0.20;0.20;;;28.20;52.00;;;;;;6305119;22;20514;-85
2023/09/19 11:52:13;;;;;;;0.20;0.20;;;28.30;51.70;;;;;;6305347;22;20199;-85
2023/09/19 11:54:45;;;;;;;1.00;0.65;;;28.30;51.40;;;;;;6304102;22;20172;-85
2023/09/19 11:57:25;;;;;;;0.55;0.47;;;28.30;50.90;;;;;;6307431;22;20165;-85
2023/09/19 11:59:54;;;;;;;0.35;0.35;;;28.30;50.60;;;;;;6304163;22;20157;-85
2023/09/19 12:02:40;;;;;;;0.30;0.30;;;28.30;50.70;;;;;;6305107;22;20196;-87
2023/09/19 12:05:10;;;;;;;0.30;0.30;;;28.40;49.90;;;;;;6303748;22;20626;-85
2023/09/19 12:07:45;;;;;;;0.47;0.32;;;28.40;49.70;;;;;;6303539;22;20488;-85
2023/09/19 12:10:19;;;;;;;0.22;0.22;;;28.40;49.70;;;;;;6304942;22;20198;-80
2023/09/19 12:12:52;;;;;;;0.30;0.30;;;28.40;49.00;;;;;;6304563;22;20149;-82
2023/09/19 12:15:28;;;;;;;0.40;0.40;;;28.40;50.50;;;;;;6303315;22;20696;-83
2023/09/19 12:17:57;;;;;;;0.28;0.28;;;28.40;49.30;;;;;;6304024;22;20184;-83
2023/09/19 12:20:26;;;;;;;0.40;0.40;;;28.40;49.40;;;;;;6304595;22;20175;-83
2023/09/19 12:22:54;;;;;;;0.20;0.20;;;28.40;49.20;;;;;;6304596;22;20537;-84
2023/09/19 12:25:27;;;;;;;0.20;0.20;;;28.40;49.60;;;;;;6301930;22;20153;-83
2023/09/19 12:27:57;;;;;;;0.60;0.60;;;28.50;49.90;;;;;;6303799;22;20200;-84
2023/09/19 12:30:33;;;;;;;0.60;0.52;;;28.40;49.70;;;;;;6302468;22;20165;-84
2023/09/19 12:33:03;;;;;;;0.77;0.57;;;28.40;49.90;;;;;;6301542;22;20157;-83
2023/09/19 12:35:35;;;;;;;0.68;0.47;;;28.50;50.30;;;;;;6302403;22;20221;-83
2023/09/19 12:38:05;;;;;;;0.68;0.47;;;28.50;49.90;;;;;;6304185;22;20173;-84
2023/09/19 12:40:38;;;;;;;0.68;0.50;;;28.50;49.90;;;;;;6300588;22;20150;-83
2023/09/19 12:43:09;;;;;;;0.30;0.30;;;28.50;50.20;;;;;;6298765;22;20157;-82
2023/09/19 12:45:38;;;;;;;0.20;0.20;;;28.50;50.40;;;;;;6301156;22;20197;-84
2023/09/19 12:48:21;;;;;;;0.38;0.35;;;28.50;50.10;;;;;;6302753;22;20168;-85
2023/09/19 12:51:05;;;;;;;0.32;0.30;;;28.50;50.30;;;;;;6302332;22;20211;-82
2023/09/19 12:53:39;;;;;;;1.05;0.50;;;28.50;50.10;;;;;;6300149;22;20728;-84
2023/09/19 12:56:12;;;;;;;0.88;0.88;;;28.50;50.30;;;;;;6303439;22;20154;-84
2023/09/19 12:58:53;;;;;;;0.38;0.38;;;28.50;50.10;;;;;;6302568;22;20656;-84
2023/09/19 13:01:24;;;;;;;0.95;0.28;;;28.50;50.10;;;;;;6301474;22;20603;-83
2023/09/19 13:04:18;;;;;;;0.60;0.60;;;28.50;50.30;;;;;;6302432;22;20208;-82
2023/09/19 13:06:48;;;;;;;0.30;0.30;;;28.50;50.40;;;;;;6305013;22;20230;-84
2023/09/19 13:09:17;;;;;;;0.22;0.22;;;28.50;49.90;;;;;;6306435;22;20603;-83
2023/09/19 13:15:57;;;;;;;0.70;0.70;;;28.60;50.50;;;;;;6203290;22;20172;-84
2023/09/19 13:18:27;;;;;;;0.47;0.47;;;28.60;50.40;;;;;;6301128;22;20191;-84
2023/09/19 13:21:10;;;;;;;0.40;0.40;;;28.60;50.60;;;;;;6304954;22;20169;-84
2023/09/19 13:23:39;;;;;;;1.38;1.08;;;28.60;50.10;;;;;;6303239;22;20188;-83
2023/09/19 13:26:08;;;;;;;0.30;0.30;;;28.60;49.80;;;;;;6305060;22;20172;-85
2023/09/19 13:28:39;;;;;;;0.75;0.50;;;28.60;50.10;;;;;;6306422;22;20227;-84